Time;durP1;ratioP1;P1;durP2;ratioP2;P2;SDS_P1;SDS_P2;PMS_P1;PMS_P2;Temp;Humidity;BMP_temperature;BMP_pressure;BME280_temperature;BME280_humidity;BME280_pressure;Samples;Min_cycle;Max_cycle;Signal;HPM_P1;HPM_P2
2021/08/16 00:02:08;;;;;;;158.77;100.22;;;;;;;;;;5272654;27;20034;-84
2021/08/16 00:04:37;;;;;;;153.45;105.30;;;;;;;;;;5272301;27;20082;-85
2021/08/16 00:07:06;;;;;;;158.27;116.22;;;;;;;;;;5252460;27;20423;-84
2021/08/16 00:09:34;;;;;;;154.73;103.47;;;;;;;;;;5271477;27;20259;-84
2021/08/16 00:12:04;;;;;;;141.75;96.25;;;;;;;;;;5271576;27;20058;-84
2021/08/16 00:14:32;;;;;;;149.32;108.63;;;;;;;;;;5272717;27;20026;-84
2021/08/16 00:17:00;;;;;;;151.43;108.65;;;;;;;;;;5251452;27;20056;-84
2021/08/16 00:19:30;;;;;;;142.93;99.10;;;;;;;;;;5270002;27;20044;-84
2021/08/16 00:21:58;;;;;;;142.85;97.40;;;;;;;;;;5271799;27;20043;-84
2021/08/16 00:24:27;;;;;;;151.80;102.00;;;;;;;;;;5272867;27;20025;-84
2021/08/16 00:26:56;;;;;;;158.48;101.22;;;;;;;;;;5270723;27;20034;-84
2021/08/16 00:29:25;;;;;;;147.00;112.20;;;;;;;;;;5271364;27;20018;-84
2021/08/16 00:31:53;;;;;;;161.50;115.80;;;;;;;;;;5273638;27;20032;-84
2021/08/16 00:34:22;;;;;;;152.98;98.00;;;;;;;;;;5250936;27;20041;-84
2021/08/16 00:36:58;;;;;;;136.85;92.75;;;;;;;;;;5271799;27;20055;-84
2021/08/16 00:39:26;;;;;;;147.93;98.68;;;;;;;;;;5270147;27;20420;-85
2021/08/16 00:41:55;;;;;;;152.57;109.87;;;;;;;;;;5272057;27;20021;-84
2021/08/16 00:44:23;;;;;;;147.27;99.28;;;;;;;;;;5270943;27;20639;-85
2021/08/16 00:46:52;;;;;;;145.70;104.32;;;;;;;;;;5271026;27;20030;-85
2021/08/16 00:49:21;;;;;;;155.23;109.95;;;;;;;;;;5269705;27;20472;-84
2021/08/16 00:51:49;;;;;;;151.93;104.53;;;;;;;;;;5269940;27;20029;-84
2021/08/16 00:54:19;;;;;;;152.02;100.97;;;;;;;;;;5270959;27;20026;-85
2021/08/16 00:56:47;;;;;;;145.35;101.60;;;;;;;;;;5271597;27;20301;-84
2021/08/16 00:59:17;;;;;;;145.20;102.03;;;;;;;;;;5270804;27;20373;-84
2021/08/16 01:01:46;;;;;;;152.30;109.30;;;;;;;;;;5272206;27;20037;-84
2021/08/16 01:04:15;;;;;;;147.13;104.97;;;;;;;;;;5270933;27;20495;-84
2021/08/16 01:06:43;;;;;;;145.40;106.25;;;;;;;;;;5270504;27;20039;-84
2021/08/16 01:09:12;;;;;;;160.27;113.32;;;;;;;;;;5271460;27;20115;-84
2021/08/16 01:11:40;;;;;;;153.57;108.32;;;;;;;;;;5272586;27;20044;-84
2021/08/16 01:14:09;;;;;;;151.60;106.93;;;;;;;;;;5271619;27;20045;-84
2021/08/16 01:16:38;;;;;;;147.93;104.57;;;;;;;;;;5271192;27;20411;-85
2021/08/16 01:19:06;;;;;;;159.77;109.10;;;;;;;;;;5271087;27;20113;-84
2021/08/16 01:21:34;;;;;;;148.75;106.32;;;;;;;;;;5269828;27;20394;-84
2021/08/16 01:24:03;;;;;;;148.30;113.37;;;;;;;;;;5271306;27;20041;-84
2021/08/16 01:26:35;;;;;;;159.37;119.57;;;;;;;;;;5271209;27;20049;-84
2021/08/16 01:29:15;;;;;;;172.48;116.12;;;;;;;;;;5270829;27;20018;-84
2021/08/16 01:31:57;;;;;;;159.27;128.32;;;;;;;;;;5271383;27;20032;-84
2021/08/16 01:34:26;;;;;;;165.85;125.45;;;;;;;;;;5272312;27;20026;-84
2021/08/16 01:36:54;;;;;;;154.30;113.10;;;;;;;;;;5271882;27;20018;-83
2021/08/16 01:39:23;;;;;;;149.57;118.85;;;;;;;;;;5269680;27;20396;-84
2021/08/16 01:41:52;;;;;;;227.77;204.07;;;;;;;;;;5271347;27;20389;-84
2021/08/16 01:44:22;;;;;;;227.62;203.77;;;;;;;;;;5272784;27;20018;-84
2021/08/16 01:46:51;;;;;;;230.00;205.95;;;;;;;;;;5271098;27;20017;-85
2021/08/16 01:49:19;;;;;;;239.93;214.32;;;;;;;;;;5270891;27;20029;-85
2021/08/16 01:51:48;;;;;;;244.40;217.60;;;;;;;;;;5271156;27;20025;-84
2021/08/16 01:54:17;;;;;;;236.40;207.32;;;;;;;;;;5270779;27;20018;-84
2021/08/16 01:56:46;;;;;;;238.07;211.98;;;;;;;;;;5269824;27;20329;-85
2021/08/16 01:59:14;;;;;;;252.13;218.12;;;;;;;;;;5271484;27;20271;-84
2021/08/16 02:01:43;;;;;;;248.95;219.87;;;;;;;;;;5270419;27;20071;-84
2021/08/16 02:04:12;;;;;;;264.20;224.65;;;;;;;;;;5270911;27;20120;-84
2021/08/16 02:06:40;;;;;;;243.90;216.93;;;;;;;;;;5252168;27;20412;-84
2021/08/16 02:09:08;;;;;;;260.48;227.38;;;;;;;;;;5271608;27;20445;-84
2021/08/16 02:11:37;;;;;;;247.68;220.48;;;;;;;;;;5271530;27;20077;-84
2021/08/16 02:14:05;;;;;;;250.45;223.73;;;;;;;;;;5270464;27;20063;-84
2021/08/16 02:16:34;;;;;;;259.02;225.18;;;;;;;;;;5271337;27;20022;-84
2021/08/16 02:19:03;;;;;;;246.48;219.37;;;;;;;;;;5270342;27;20412;-84
2021/08/16 02:21:31;;;;;;;248.70;221.32;;;;;;;;;;5271360;27;20051;-84
2021/08/16 02:23:59;;;;;;;261.00;226.10;;;;;;;;;;5269816;27;20506;-85
2021/08/16 02:26:28;;;;;;;269.87;230.15;;;;;;;;;;5274889;27;20030;-84
2021/08/16 02:28:56;;;;;;;258.65;228.05;;;;;;;;;;5271878;27;20028;-84
2021/08/16 02:31:25;;;;;;;278.08;237.43;;;;;;;;;;5272443;27;20035;-84
2021/08/16 02:33:54;;;;;;;275.35;236.60;;;;;;;;;;5253949;27;20025;-84
2021/08/16 02:36:22;;;;;;;257.33;224.23;;;;;;;;;;5271199;27;20065;-84
2021/08/16 02:38:50;;;;;;;209.12;187.20;;;;;;;;;;5271501;27;20073;-84
2021/08/16 02:41:19;;;;;;;209.82;187.60;;;;;;;;;;5270592;27;20038;-84
2021/08/16 02:43:47;;;;;;;240.82;214.77;;;;;;;;;;5270563;27;20111;-84
2021/08/16 02:46:16;;;;;;;242.55;216.73;;;;;;;;;;5271319;27;20009;-84
2021/08/16 02:48:44;;;;;;;241.15;213.82;;;;;;;;;;5273037;27;20044;-84
2021/08/16 02:51:13;;;;;;;239.75;213.55;;;;;;;;;;5271765;27;20018;-83
2021/08/16 02:53:41;;;;;;;249.52;221.82;;;;;;;;;;5273663;27;20085;-84
2021/08/16 02:56:10;;;;;;;256.17;227.80;;;;;;;;;;5272414;27;20021;-84
2021/08/16 02:58:38;;;;;;;258.90;223.90;;;;;;;;;;5271982;27;20058;-84
2021/08/16 03:01:06;;;;;;;270.20;230.23;;;;;;;;;;5272906;27;20021;-84
2021/08/16 03:03:35;;;;;;;279.13;228.98;;;;;;;;;;5272452;27;20553;-84
2021/08/16 03:06:04;;;;;;;281.85;231.68;;;;;;;;;;5271265;27;20013;-84
2021/08/16 03:08:34;;;;;;;262.38;228.80;;;;;;;;;;5271432;27;20432;-84
2021/08/16 08:57:33;;;;;;;20.50;6.15;;;;;;;;;;5243305;27;20146;-84
2021/08/16 09:00:02;;;;;;;19.90;5.87;;;;;;;;;;5286947;27;20026;-85
2021/08/16 09:02:30;;;;;;;20.77;5.95;;;;;;;;;;5291892;27;20033;-85
2021/08/16 09:05:00;;;;;;;21.48;6.35;;;;;;;;;;5293153;27;20465;-85
2021/08/16 09:07:30;;;;;;;20.05;6.05;;;;;;;;;;5289035;27;20021;-85
2021/08/16 09:09:58;;;;;;;23.75;6.50;;;;;;;;;;5291543;27;20047;-86
2021/08/16 09:12:34;;;;;;;19.85;6.62;;;;;;;;;;5295175;27;20434;-85
2021/08/16 09:15:12;;;;;;;18.87;5.87;;;;;;;;;;5290586;27;20456;-85
2021/08/16 09:17:41;;;;;;;30.88;6.45;;;;;;;;;;5295655;27;20037;-85
2021/08/16 09:20:17;;;;;;;21.62;6.15;;;;;;;;;;5293680;27;20464;-85
2021/08/16 09:23:04;;;;;;;21.42;6.25;;;;;;;;;;5290461;27;20041;-86
2021/08/16 09:25:36;;;;;;;19.70;6.18;;;;;;;;;;5288747;27;20017;-85
2021/08/16 09:28:05;;;;;;;23.83;6.37;;;;;;;;;;5292434;27;20075;-86
2021/08/16 09:30:40;;;;;;;18.77;6.07;;;;;;;;;;5293715;27;20029;-85
2021/08/16 09:33:16;;;;;;;22.50;6.18;;;;;;;;;;5288706;27;20009;-85
2021/08/16 09:35:52;;;;;;;23.15;5.95;;;;;;;;;;5289450;27;20041;-86
2021/08/16 09:38:32;;;;;;;22.77;6.07;;;;;;;;;;5293830;27;20137;-85
2021/08/16 09:41:01;;;;;;;22.13;5.65;;;;;;;;;;5294976;27;20094;-85
2021/08/16 09:43:30;;;;;;;23.05;6.12;;;;;;;;;;5290370;27;20120;-85
2021/08/16 09:46:00;;;;;;;18.35;5.68;;;;;;;;;;5272259;27;20049;-85
2021/08/16 09:48:29;;;;;;;20.75;6.62;;;;;;;;;;5295044;27;20026;-85
2021/08/16 09:50:58;;;;;;;20.73;5.75;;;;;;;;;;5288117;27;20083;-86
2021/08/16 09:53:26;;;;;;;18.80;6.00;;;;;;;;;;5282739;27;20632;-86
2021/08/16 09:56:02;;;;;;;17.00;5.70;;;;;;;;;;5284698;27;20089;-85
2021/08/16 09:58:31;;;;;;;18.98;5.25;;;;;;;;;;5282327;27;20544;-86
2021/08/16 10:00:59;;;;;;;23.83;6.20;;;;;;;;;;5281696;27;20061;-85
2021/08/16 10:03:28;;;;;;;20.25;5.62;;;;;;;;;;5279973;27;20049;-84
2021/08/16 10:05:57;;;;;;;18.92;6.62;;;;;;;;;;5294929;27;20033;-85
2021/08/16 10:08:27;;;;;;;21.65;5.90;;;;;;;;;;5295516;27;20033;-86
2021/08/16 10:10:57;;;;;;;16.70;5.35;;;;;;;;;;5285340;27;20412;-85
2021/08/16 10:13:25;;;;;;;20.02;5.50;;;;;;;;;;5289043;27;20226;-85
2021/08/16 10:16:00;;;;;;;25.70;6.30;;;;;;;;;;5289333;27;20405;-86
2021/08/16 10:18:28;;;;;;;;;;;;;;;;;;5286223;27;20097;-85
2021/08/16 10:20:57;;;;;;;21.15;5.68;;;;;;;;;;5285263;27;19971;-85
2021/08/16 10:23:26;;;;;;;15.30;4.95;;;;;;;;;;5288642;27;20036;-85
2021/08/16 10:25:55;;;;;;;22.60;5.65;;;;;;;;;;5290338;27;20093;-85
2021/08/16 10:28:24;;;;;;;20.02;5.45;;;;;;;;;;5291397;27;20028;-85
2021/08/16 10:30:53;;;;;;;21.52;5.55;;;;;;;;;;5289963;27;20083;-86
2021/08/16 10:33:21;;;;;;;15.43;5.20;;;;;;;;;;5292233;27;20132;-86
2021/08/16 10:35:51;;;;;;;21.95;5.93;;;;;;;;;;5295414;27;20330;-85
2021/08/16 10:38:46;;;;;;;28.58;6.15;;;;;;;;;;5293130;27;20017;-85
2021/08/16 10:41:25;;;;;;;18.02;5.30;;;;;;;;;;5295036;27;20033;-85
2021/08/16 10:43:54;;;;;;;17.58;5.47;;;;;;;;;;5296388;27;20058;-85
2021/08/16 10:46:24;;;;;;;21.05;5.72;;;;;;;;;;5294993;27;20025;-85
2021/08/16 10:48:59;;;;;;;17.17;5.22;;;;;;;;;;5292853;27;20053;-85
2021/08/16 10:51:38;;;;;;;18.33;5.30;;;;;;;;;;5296197;27;20059;-86
2021/08/16 10:54:06;;;;;;;22.58;5.32;;;;;;;;;;5294568;27;20040;-85
2021/08/16 10:56:35;;;;;;;18.90;5.12;;;;;;;;;;5292892;27;20329;-85
2021/08/16 10:59:04;;;;;;;22.73;5.37;;;;;;;;;;5274390;27;20351;-85
2021/08/16 11:01:33;;;;;;;22.20;5.90;;;;;;;;;;5295331;27;20112;-85
2021/08/16 11:04:28;;;;;;;22.73;5.53;;;;;;;;;;5296303;27;20642;-85
2021/08/16 11:07:00;;;;;;;29.27;6.62;;;;;;;;;;5294339;27;20082;-85
2021/08/16 11:09:30;;;;;;;21.85;5.62;;;;;;;;;;5294534;27;20172;-86
2021/08/16 11:12:05;;;;;;;18.37;5.20;;;;;;;;;;5296320;27;20090;-85
2021/08/16 11:14:35;;;;;;;17.45;4.75;;;;;;;;;;5294684;27;20044;-85
2021/08/16 11:17:04;;;;;;;35.30;5.87;;;;;;;;;;5293705;27;20522;-85
2021/08/16 11:19:57;;;;;;;20.45;5.62;;;;;;;;;;5275120;27;20037;-85
2021/08/16 11:22:25;;;;;;;21.02;4.55;;;;;;;;;;5294930;27;20385;-85
2021/08/16 11:24:54;;;;;;;29.40;5.62;;;;;;;;;;5286531;27;20029;-85
2021/08/16 11:27:23;;;;;;;23.48;5.50;;;;;;;;;;5290323;27;20053;-86
2021/08/16 11:30:01;;;;;;;16.65;5.10;;;;;;;;;;5295355;27;20683;-86
2021/08/16 11:32:30;;;;;;;21.90;5.70;;;;;;;;;;5294866;27;20053;-84
2021/08/16 11:34:59;;;;;;;17.80;5.20;;;;;;;;;;5292087;27;20633;-85
2021/08/16 11:37:32;;;;;;;23.08;5.65;;;;;;;;;;5292141;27;20061;-85
2021/08/16 11:40:01;;;;;;;20.90;5.47;;;;;;;;;;5294168;27;20360;-85
2021/08/16 11:42:44;;;;;;;;;;;;;;;;;;5275995;27;20343;-85
2021/08/16 11:45:14;;;;;;;19.02;5.45;;;;;;;;;;5291465;27;20511;-85
2021/08/16 11:47:44;;;;;;;19.80;5.10;;;;;;;;;;5290182;27;20032;-85
2021/08/16 11:50:14;;;;;;;24.90;6.00;;;;;;;;;;5289466;27;20467;-85
2021/08/16 11:52:43;;;;;;;21.58;6.37;;;;;;;;;;5288293;27;20251;-86
2021/08/16 11:55:11;;;;;;;21.83;4.95;;;;;;;;;;5252162;27;20033;-85
2021/08/16 11:58:00;;;;;;;20.77;5.05;;;;;;;;;;5272947;27;20144;-85
2021/08/16 12:00:32;;;;;;;17.08;4.82;;;;;;;;;;5290108;27;20047;-85
2021/08/16 12:03:02;;;;;;;34.60;5.63;;;;;;;;;;5290293;27;20032;-86
2021/08/16 12:05:32;;;;;;;21.12;5.00;;;;;;;;;;5289277;27;20025;-85
2021/08/16 12:08:06;;;;;;;25.27;6.00;;;;;;;;;;5289983;27;20044;-85
2021/08/16 12:10:41;;;;;;;21.60;5.85;;;;;;;;;;5290747;27;20050;-84
2021/08/16 12:13:12;;;;;;;25.00;5.90;;;;;;;;;;5289039;27;20021;-86
2021/08/16 12:15:44;;;;;;;21.55;5.80;;;;;;;;;;5268383;27;20094;-85
2021/08/16 12:18:13;;;;;;;28.42;6.05;;;;;;;;;;5295299;27;20061;-85
2021/08/16 12:20:48;;;;;;;16.15;5.25;;;;;;;;;;5290377;27;20059;-85
2021/08/16 12:45:34;;;;;;;22.87;5.57;;;;;;;;;;5260997;27;20021;-84
2021/08/16 12:49:03;;;;;;;19.00;5.62;;;;;;;;;;5168450;27;20182;-88
2021/08/16 14:06:20;;;;;;;21.40;5.78;;;;;;;;;;5275311;26;20053;-84
2021/08/16 14:19:30;;;;;;;23.95;6.45;;;;;;;;;;5223507;27;20057;-84
2021/08/16 14:22:10;;;;;;;32.15;6.93;;;;;;;;;;4441680;31;21209;-84
2021/08/16 14:24:52;;;;;;;27.87;6.10;;;;;;;;;;4424559;31;20466;-84
2021/08/16 14:27:36;;;;;;;28.95;6.35;;;;;;;;;;4428563;31;20407;-84
2021/08/16 14:40:46;;;;;;;25.48;5.45;;;;;;;;;;5305014;26;20037;-86
2021/08/16 14:53:54;;;;;;;19.23;4.70;;;;;;;;;;5314927;26;20022;-85
2021/08/16 14:56:40;;;;;;;24.42;5.62;;;;;;;;;;4439532;31;20081;-84
2021/08/16 14:59:24;;;;;;;23.83;5.90;;;;;;;;;;4432690;31;20097;-86
2021/08/16 15:02:06;;;;;;;30.02;5.70;;;;;;;;;;4434008;31;20437;-84
2021/08/16 15:04:48;;;;;;;30.02;6.37;;;;;;;;;;4429867;31;20163;-85
2021/08/16 15:07:28;;;;;;;25.50;6.18;;;;;;;;;;4425060;31;20139;-84
2021/08/16 15:10:11;;;;;;;28.62;6.68;;;;;;;;;;4436877;31;20134;-85
2021/08/16 15:23:21;;;;;;;25.50;5.72;;;;;;;;;;5296666;26;20018;-83
2021/08/16 15:26:04;;;;;;;35.55;6.70;;;;;;;;;;4448152;31;20384;-84
2021/08/16 15:28:50;;;;;;;27.15;6.53;;;;;;;;;;4457758;31;20108;-85
2021/08/16 15:31:32;;;;;;;29.63;6.78;;;;;;;;;;4435161;31;20078;-85
2021/08/16 15:34:14;;;;;;;29.35;6.53;;;;;;;;;;4459386;31;20074;-84
2021/08/16 15:36:56;;;;;;;36.58;7.55;;;;;;;;;;4450861;31;20080;-86
2021/08/16 15:39:39;;;;;;;42.67;7.18;;;;;;;;;;4430876;26;20092;-85
2021/08/16 15:42:33;;;;;;;25.90;5.55;;;;;;;;;;4404149;32;20509;-85
2021/08/16 15:45:22;;;;;;;27.55;6.10;;;;;;;;;;5319288;26;20044;-84
2021/08/16 15:48:09;;;;;;;27.73;5.87;;;;;;;;;;4440810;31;20101;-85
2021/08/16 15:50:59;;;;;;;26.55;5.60;;;;;;;;;;4429422;32;20109;-85
2021/08/16 15:53:41;;;;;;;23.00;5.90;;;;;;;;;;4442822;31;20182;-85
2021/08/16 16:06:50;;;;;;;30.85;6.97;;;;;;;;;;4409409;32;20039;-85
2021/08/16 16:09:32;;;;;;;24.58;5.68;;;;;;;;;;4430999;26;20175;-86
2021/08/16 16:12:13;;;;;;;28.25;5.85;;;;;;;;;;4449054;31;20094;-86
2021/08/16 16:14:59;;;;;;;21.52;5.35;;;;;;;;;;4456127;31;20471;-83
2021/08/16 16:17:41;;;;;;;26.60;5.60;;;;;;;;;;4440025;31;20083;-86
2021/08/16 16:20:48;;;;;;;28.80;6.62;;;;;;;;;;4435614;26;20091;-85
2021/08/16 16:23:31;;;;;;;28.60;5.90;;;;;;;;;;4454867;31;20118;-85
2021/08/16 16:26:12;;;;;;;27.40;6.10;;;;;;;;;;5320982;26;20081;-85
2021/08/16 16:28:54;;;;;;;26.85;5.87;;;;;;;;;;4452605;31;20079;-84
2021/08/16 16:31:35;;;;;;;24.05;6.07;;;;;;;;;;4445781;31;20099;-85
2021/08/16 16:34:17;;;;;;;24.87;5.93;;;;;;;;;;4479965;26;20739;-85
2021/08/16 16:37:03;;;;;;;31.20;6.18;;;;;;;;;;4443072;31;20046;-85
2021/08/16 16:42:57;;;;;;;50.75;7.70;;;;;;;;;;4298660;29;20138;-85
2021/08/16 16:45:48;;;;;;;26.52;5.95;;;;;;;;;;4428464;31;20042;-85
2021/08/16 16:48:31;;;;;;;28.87;5.72;;;;;;;;;;4275928;26;20545;-85
2021/08/16 16:51:21;;;;;;;29.30;7.00;;;;;;;;;;4450259;26;20135;-85
2021/08/16 17:04:25;;;;;;;30.85;5.87;;;;;;;;;;4439585;26;20073;-85
2021/08/16 17:07:11;;;;;;;29.87;6.15;;;;;;;;;;4461703;31;20472;-85
2021/08/16 17:09:53;;;;;;;24.40;5.70;;;;;;;;;;4438164;32;20083;-85
2021/08/16 17:12:36;;;;;;;25.75;6.18;;;;;;;;;;4446843;31;22140;-85
2021/08/16 17:15:30;;;;;;;27.45;5.93;;;;;;;;;;4400556;32;20047;-86
2021/08/16 17:18:15;;;;;;;23.00;5.78;;;;;;;;;;4454663;31;20053;-85
2021/08/16 17:20:56;;;;;;;30.50;6.47;;;;;;;;;;4417811;26;20126;-84
2021/08/16 17:23:36;;;;;;;29.73;5.80;;;;;;;;;;4450346;31;20137;-85
2021/08/16 17:26:22;;;;;;;39.13;6.45;;;;;;;;;;4444044;31;20054;-85
2021/08/16 17:29:08;;;;;;;31.87;6.00;;;;;;;;;;4447697;31;20050;-84
2021/08/16 17:31:51;;;;;;;26.10;6.20;;;;;;;;;;4461233;31;20862;-85
2021/08/16 17:47:37;;;;;;;33.60;6.32;;;;;;;;;;5270906;27;20059;-85
2021/08/16 17:50:19;;;;;;;34.35;6.72;;;;;;;;;;4442516;31;20111;-85
2021/08/16 17:53:01;;;;;;;33.25;6.57;;;;;;;;;;4441622;31;20142;-84
2021/08/16 17:55:45;;;;;;;22.80;5.43;;;;;;;;;;4439209;31;20133;-85
2021/08/16 17:58:31;;;;;;;26.23;6.43;;;;;;;;;;4442202;31;20057;-85
2021/08/16 19:32:14;;;;;;;28.25;5.72;;;;;;;;;;5277585;26;20033;-85
2021/08/16 19:35:01;;;;;;;25.20;6.07;;;;;;;;;;4432342;31;20119;-84
2021/08/16 19:37:43;;;;;;;28.25;5.28;;;;;;;;;;4443392;31;20484;-83
2021/08/16 19:40:27;;;;;;;27.87;7.05;;;;;;;;;;4434203;32;20440;-84
2021/08/16 19:43:10;;;;;;;26.25;8.27;;;;;;;;;;4433065;31;20088;-87
2021/08/16 19:45:52;;;;;;;22.62;5.50;;;;;;;;;;4425937;31;20608;-86
2021/08/16 19:48:33;;;;;;;29.00;9.38;;;;;;;;;;4429448;31;20111;-85
2021/08/16 20:06:54;;;;;;;23.20;7.07;;;;;;;;;;5253192;27;20362;-84
2021/08/16 20:09:35;;;;;;;24.27;7.28;;;;;;;;;;4454489;31;20158;-86
2021/08/16 20:12:17;;;;;;;25.77;7.72;;;;;;;;;;4444409;31;20150;-86
2021/08/16 20:14:59;;;;;;;26.00;8.48;;;;;;;;;;4456125;31;20098;-86
2021/08/16 20:17:28;;;;;;;39.33;9.73;;;;;;;;;;4448070;32;20083;-85
2021/08/16 20:19:56;;;;;;;28.27;9.50;;;;;;;;;;4431396;32;20521;-86
2021/08/16 20:22:25;;;;;;;30.90;8.43;;;;;;;;;;4434652;32;20065;-85
2021/08/16 20:24:53;;;;;;;27.27;10.05;;;;;;;;;;4437260;32;20101;-85
2021/08/16 20:27:22;;;;;;;32.17;9.57;;;;;;;;;;4441532;32;20281;-85
2021/08/16 20:29:50;;;;;;;32.00;14.13;;;;;;;;;;4432445;32;20499;-85
2021/08/16 20:32:19;;;;;;;23.05;11.68;;;;;;;;;;4440739;32;20046;-85
2021/08/16 20:34:47;;;;;;;24.40;9.63;;;;;;;;;;4437974;32;20065;-85
2021/08/16 20:37:16;;;;;;;30.42;10.52;;;;;;;;;;4437007;32;20104;-85
2021/08/16 20:39:45;;;;;;;29.87;9.77;;;;;;;;;;4430143;32;20526;-86
2021/08/16 20:42:13;;;;;;;30.42;10.20;;;;;;;;;;4440407;32;20053;-86
2021/08/16 20:44:41;;;;;;;32.17;13.20;;;;;;;;;;4435957;32;20154;-86
2021/08/16 20:47:10;;;;;;;32.90;15.88;;;;;;;;;;4439459;32;20068;-86
2021/08/16 20:49:38;;;;;;;28.65;18.00;;;;;;;;;;4438475;32;20094;-85
2021/08/16 20:52:08;;;;;;;24.40;15.02;;;;;;;;;;4440081;32;20077;-87
2021/08/16 20:54:37;;;;;;;28.90;18.12;;;;;;;;;;4440785;32;20198;-87
2021/08/16 20:57:05;;;;;;;31.02;11.30;;;;;;;;;;4430144;32;20082;-86
2021/08/16 20:59:34;;;;;;;23.30;6.57;;;;;;;;;;4433473;32;20621;-85
2021/08/16 21:02:05;;;;;;;18.17;5.75;;;;;;;;;;4441843;32;20127;-85
2021/08/16 21:04:34;;;;;;;24.08;5.40;;;;;;;;;;4441969;32;20045;-85
2021/08/16 21:07:03;;;;;;;19.90;5.12;;;;;;;;;;4440205;32;20088;-86
2021/08/16 21:09:31;;;;;;;24.83;6.40;;;;;;;;;;4435566;32;20097;-85
2021/08/16 21:12:00;;;;;;;23.42;5.82;;;;;;;;;;4437991;32;20057;-86
2021/08/16 21:14:29;;;;;;;23.70;5.10;;;;;;;;;;4438938;32;20540;-85
2021/08/16 21:16:57;;;;;;;21.83;5.45;;;;;;;;;;4433123;32;20117;-85
2021/08/16 21:19:33;;;;;;;21.60;4.70;;;;;;;;;;4436721;32;20096;-85
2021/08/16 21:22:05;;;;;;;21.85;4.80;;;;;;;;;;4435894;32;20143;-85
2021/08/16 21:24:34;;;;;;;24.37;5.87;;;;;;;;;;4432919;32;20459;-85
2021/08/16 21:27:09;;;;;;;22.23;5.35;;;;;;;;;;4420232;32;20095;-86
2021/08/16 21:29:38;;;;;;;28.70;5.45;;;;;;;;;;4427335;32;20406;-85
2021/08/16 21:32:08;;;;;;;22.35;4.97;;;;;;;;;;4423229;32;20495;-85
2021/08/16 21:34:37;;;;;;;21.55;5.05;;;;;;;;;;4424069;32;20113;-85
2021/08/16 21:37:05;;;;;;;21.12;4.82;;;;;;;;;;4421695;32;20053;-85
2021/08/16 21:39:34;;;;;;;20.75;5.22;;;;;;;;;;4431701;32;20045;-85
2021/08/16 21:42:03;;;;;;;23.12;5.72;;;;;;;;;;4424962;32;20136;-85
2021/08/16 21:44:31;;;;;;;22.60;5.12;;;;;;;;;;4428933;32;20058;-85
2021/08/16 21:47:00;;;;;;;20.52;4.80;;;;;;;;;;4429725;32;20127;-85
2021/08/16 21:49:28;;;;;;;18.30;4.62;;;;;;;;;;4426800;32;20722;-86
2021/08/16 21:51:57;;;;;;;23.30;4.90;;;;;;;;;;4423117;32;20095;-85
2021/08/16 21:54:25;;;;;;;17.08;3.90;;;;;;;;;;4428433;32;20045;-85
2021/08/16 21:56:54;;;;;;;20.35;4.82;;;;;;;;;;4424441;32;20045;-85
2021/08/16 21:59:22;;;;;;;20.75;4.82;;;;;;;;;;4424360;32;20671;-86
2021/08/16 22:01:50;;;;;;;17.77;4.43;;;;;;;;;;4423957;32;20042;-85
2021/08/16 22:04:20;;;;;;;21.58;5.12;;;;;;;;;;4405455;32;20053;-84
2021/08/16 22:06:48;;;;;;;23.25;5.50;;;;;;;;;;4424906;32;20107;-85
2021/08/16 22:09:16;;;;;;;19.15;4.50;;;;;;;;;;4427469;32;20054;-85
2021/08/16 22:11:45;;;;;;;21.67;4.85;;;;;;;;;;4428174;32;20079;-85
2021/08/16 22:14:13;;;;;;;25.15;5.75;;;;;;;;;;4426115;32;20062;-84
2021/08/16 22:16:42;;;;;;;23.08;5.47;;;;;;;;;;4431515;32;20169;-86
2021/08/16 22:19:10;;;;;;;30.52;5.30;;;;;;;;;;4427688;32;20054;-85
2021/08/16 22:21:40;;;;;;;26.05;4.65;;;;;;;;;;4427026;32;20091;-86
2021/08/16 22:24:09;;;;;;;23.70;5.40;;;;;;;;;;4420508;32;20150;-85
2021/08/16 22:26:38;;;;;;;24.65;4.95;;;;;;;;;;4424649;32;20109;-85
2021/08/16 22:29:07;;;;;;;20.85;4.45;;;;;;;;;;4422071;32;20508;-85
2021/08/16 22:31:35;;;;;;;24.40;5.18;;;;;;;;;;4425205;32;20108;-85
2021/08/16 22:34:05;;;;;;;21.42;5.07;;;;;;;;;;4428563;32;20107;-85
2021/08/16 22:36:34;;;;;;;23.08;4.32;;;;;;;;;;4432445;32;20109;-85
2021/08/16 22:39:02;;;;;;;18.50;4.78;;;;;;;;;;4427748;32;20597;-85
2021/08/16 22:41:31;;;;;;;29.35;5.25;;;;;;;;;;4422786;32;20080;-85
2021/08/16 22:43:59;;;;;;;24.23;4.85;;;;;;;;;;4422148;32;20135;-85
2021/08/16 22:46:28;;;;;;;22.87;5.07;;;;;;;;;;4427427;32;20046;-86
2021/08/16 22:48:57;;;;;;;21.52;5.00;;;;;;;;;;4431280;32;20042;-86
2021/08/16 22:51:25;;;;;;;22.55;4.90;;;;;;;;;;4420517;32;20096;-83
2021/08/16 22:53:53;;;;;;;21.00;4.65;;;;;;;;;;4425727;32;20154;-86
2021/08/16 22:56:22;;;;;;;24.27;4.45;;;;;;;;;;4427587;32;20127;-86
2021/08/16 22:58:50;;;;;;;17.98;4.30;;;;;;;;;;4428591;32;20142;-87
2021/08/16 23:01:19;;;;;;;19.70;4.10;;;;;;;;;;4414787;32;20041;-85
2021/08/16 23:03:48;;;;;;;26.62;4.97;;;;;;;;;;4418714;32;20102;-85
2021/08/16 23:06:16;;;;;;;17.70;4.20;;;;;;;;;;4412398;32;20441;-84
2021/08/16 23:08:44;;;;;;;15.32;4.57;;;;;;;;;;4430431;32;20092;-85
2021/08/16 23:11:23;;;;;;;22.00;4.32;;;;;;;;;;4427156;32;20045;-85
2021/08/16 23:13:52;;;;;;;19.95;4.12;;;;;;;;;;4424526;32;20105;-86
2021/08/16 23:16:21;;;;;;;22.35;4.75;;;;;;;;;;4430006;32;20413;-86
2021/08/16 23:18:50;;;;;;;22.90;5.40;;;;;;;;;;4424676;32;20121;-86
2021/08/16 23:21:18;;;;;;;16.67;4.72;;;;;;;;;;4425823;32;20093;-86
2021/08/16 23:23:47;;;;;;;20.27;5.25;;;;;;;;;;4423699;32;20190;-86
2021/08/16 23:26:15;;;;;;;18.45;5.57;;;;;;;;;;4428587;32;20546;-85
2021/08/16 23:28:44;;;;;;;23.40;5.72;;;;;;;;;;4423964;32;20058;-85
2021/08/16 23:31:13;;;;;;;15.13;4.18;;;;;;;;;;4429668;32;20096;-85
2021/08/16 23:33:41;;;;;;;20.30;4.82;;;;;;;;;;4430888;32;20077;-85
2021/08/16 23:36:10;;;;;;;27.17;5.10;;;;;;;;;;4430703;32;20106;-85
2021/08/16 23:38:39;;;;;;;20.65;4.78;;;;;;;;;;4428016;32;20046;-86
2021/08/16 23:41:07;;;;;;;17.33;4.37;;;;;;;;;;4429225;32;20373;-86
2021/08/16 23:43:35;;;;;;;19.95;4.30;;;;;;;;;;4427265;32;20068;-85
2021/08/16 23:46:04;;;;;;;15.60;3.80;;;;;;;;;;4422979;32;20076;-86
2021/08/16 23:48:32;;;;;;;11.60;3.60;;;;;;;;;;4421826;32;20119;-86
2021/08/16 23:51:01;;;;;;;17.30;4.12;;;;;;;;;;4425686;32;20130;-87
2021/08/16 23:53:30;;;;;;;22.17;5.25;;;;;;;;;;4429150;32;20400;-83
2021/08/16 23:55:58;;;;;;;16.95;4.45;;;;;;;;;;4427606;32;20046;-86
2021/08/16 23:58:26;;;;;;;24.83;5.28;;;;;;;;;;4421038;32;20076;-84
